createdAt,value
2023-07-25T00:00:50.283Z,20.58
2023-07-25T00:03:27.197Z,20.57
2023-07-25T00:05:55.266Z,20.56
2023-07-25T00:08:23.450Z,20.55
2023-07-25T00:10:51.591Z,20.56
2023-07-25T00:13:20.747Z,20.55
2023-07-25T00:15:48.900Z,20.54
2023-07-25T00:18:17.175Z,20.52
2023-07-25T00:20:45.258Z,20.51
2023-07-25T00:23:13.432Z,20.51
2023-07-25T00:25:41.637Z,20.51
2023-07-25T00:28:09.764Z,20.50
2023-07-25T00:30:37.941Z,20.50
2023-07-25T00:33:06.703Z,20.49
2023-07-25T00:35:34.940Z,20.47
2023-07-25T00:38:06.038Z,20.47
2023-07-25T00:40:39.007Z,20.46
2023-07-25T00:43:07.169Z,20.43
2023-07-25T00:45:35.471Z,20.43
2023-07-25T00:48:04.571Z,20.43
2023-07-25T00:50:32.939Z,20.42
2023-07-25T00:53:02.838Z,20.43
2023-07-25T00:55:31.210Z,20.44
2023-07-25T00:57:59.502Z,20.46
2023-07-25T01:00:27.850Z,20.49
2023-07-25T01:02:56.173Z,20.52
2023-07-25T01:05:25.908Z,20.53
2023-07-25T01:07:54.137Z,20.53
2023-07-25T01:10:22.223Z,20.51
2023-07-25T01:12:50.454Z,20.51
2023-07-25T01:15:18.685Z,20.51
2023-07-25T01:17:46.881Z,20.51
2023-07-25T01:20:15.596Z,20.52
2023-07-25T01:22:46.240Z,20.52
2023-07-25T01:25:15.201Z,20.51
2023-07-25T01:27:43.491Z,20.49
2023-07-25T01:30:11.869Z,20.47
2023-07-25T01:32:40.064Z,20.45
2023-07-25T01:35:08.695Z,20.45
2023-07-25T01:37:36.903Z,20.44
2023-07-25T01:40:05.381Z,20.43
2023-07-25T01:42:33.597Z,20.42
2023-07-25T01:45:01.790Z,20.42
2023-07-25T01:47:31.640Z,20.40
2023-07-25T01:49:59.848Z,20.40
2023-07-25T01:52:27.992Z,20.39
2023-07-25T01:54:56.130Z,20.39
2023-07-25T01:57:24.308Z,20.38
2023-07-25T01:59:53.058Z,20.37
2023-07-25T02:02:21.351Z,20.35
2023-07-25T02:04:49.631Z,20.34
2023-07-25T02:07:17.703Z,20.33
2023-07-25T02:09:45.832Z,20.32
2023-07-25T02:12:13.913Z,20.31
2023-07-25T02:14:42.000Z,20.30
2023-07-25T02:17:10.291Z,20.29
2023-07-25T02:19:39.461Z,20.27
2023-07-25T02:22:07.787Z,20.27
2023-07-25T02:24:36.931Z,20.26
2023-07-25T02:27:05.371Z,20.25
2023-07-25T02:29:33.808Z,20.23
2023-07-25T02:32:01.873Z,20.20
2023-07-25T02:34:29.981Z,20.18
2023-07-25T02:36:58.197Z,20.16
2023-07-25T02:39:26.268Z,20.15
2023-07-25T02:41:54.445Z,20.13
2023-07-25T02:44:22.592Z,20.12
2023-07-25T02:46:50.813Z,20.11
2023-07-25T02:49:18.961Z,20.11
2023-07-25T02:51:47.104Z,20.10
2023-07-25T02:54:15.193Z,20.10
2023-07-25T02:56:43.281Z,20.10
2023-07-25T02:59:11.391Z,20.09
2023-07-25T03:01:39.645Z,20.08
2023-07-25T03:04:07.870Z,20.07
2023-07-25T03:06:35.968Z,20.06
2023-07-25T03:09:04.692Z,20.04
2023-07-25T03:11:33.042Z,20.02
2023-07-25T03:14:01.600Z,20.01
2023-07-25T03:16:30.330Z,20.00
2023-07-25T03:18:58.509Z,20.00
2023-07-25T03:21:26.721Z,19.99
2023-07-25T03:23:54.930Z,19.98
2023-07-25T03:26:23.396Z,19.98
2023-07-25T03:28:51.549Z,19.98
2023-07-25T03:31:19.688Z,19.97
2023-07-25T03:33:47.977Z,19.96
2023-07-25T03:36:16.066Z,19.96
2023-07-25T03:38:44.247Z,19.95
2023-07-25T03:41:12.427Z,19.95
2023-07-25T03:43:40.479Z,19.96
2023-07-25T03:46:08.901Z,19.96
2023-07-25T03:48:37.092Z,19.96
2023-07-25T03:51:05.220Z,19.96
2023-07-25T03:53:33.460Z,19.97
2023-07-25T03:56:01.830Z,19.97
2023-07-25T03:58:30.025Z,19.96
2023-07-25T04:00:58.146Z,19.96
2023-07-25T04:03:27.700Z,19.97
2023-07-25T04:05:56.346Z,19.99
2023-07-25T04:08:24.634Z,19.99
2023-07-25T04:10:52.744Z,19.99
2023-07-25T04:13:20.805Z,20.00
2023-07-25T04:15:49.165Z,20.01
2023-07-25T04:18:17.636Z,20.01
2023-07-25T04:20:45.785Z,20.01
2023-07-25T04:23:13.912Z,20.03
2023-07-25T04:25:41.997Z,20.04
2023-07-25T04:28:10.990Z,20.05
2023-07-25T04:30:39.195Z,20.05
2023-07-25T04:33:07.911Z,20.05
2023-07-25T04:35:36.316Z,20.05
2023-07-25T04:38:04.426Z,20.05
2023-07-25T04:40:32.782Z,20.05
2023-07-25T04:43:00.909Z,20.07
2023-07-25T04:45:29.100Z,20.07
2023-07-25T04:47:57.295Z,20.09
2023-07-25T04:50:25.420Z,20.09
2023-07-25T04:52:54.355Z,20.10
2023-07-25T04:55:22.457Z,20.10
2023-07-25T04:57:51.730Z,20.10
2023-07-25T05:00:19.970Z,20.12
2023-07-25T05:02:48.209Z,20.13
2023-07-25T05:05:16.517Z,20.14
2023-07-25T05:07:44.629Z,20.14
2023-07-25T05:10:12.770Z,20.16
2023-07-25T05:12:40.903Z,20.17
2023-07-25T05:15:09.266Z,20.18
2023-07-25T05:17:37.498Z,20.19
2023-07-25T05:20:06.638Z,20.19
2023-07-25T05:22:38.049Z,20.18
2023-07-25T05:25:06.567Z,20.19
2023-07-25T05:27:34.932Z,20.20
2023-07-25T05:30:04.110Z,20.21
2023-07-25T05:32:32.982Z,20.23
2023-07-25T05:35:05.947Z,20.25
2023-07-25T05:37:39.305Z,20.26
2023-07-25T05:40:08.040Z,20.28
2023-07-25T05:42:36.489Z,20.31
2023-07-25T05:45:07.892Z,20.34
2023-07-25T05:47:36.059Z,20.36
2023-07-25T05:50:04.579Z,20.37
2023-07-25T05:52:32.846Z,20.39
2023-07-25T05:55:00.921Z,20.40
2023-07-25T05:57:29.206Z,20.42
2023-07-25T05:59:57.319Z,20.42
2023-07-25T06:02:25.562Z,20.44
2023-07-25T06:04:53.756Z,20.46
2023-07-25T06:07:23.838Z,20.48
2023-07-25T06:09:52.340Z,20.52
2023-07-25T06:12:21.025Z,20.52
2023-07-25T06:14:49.441Z,20.53
2023-07-25T06:17:20.656Z,20.54
2023-07-25T06:19:49.380Z,20.54
2023-07-25T06:22:17.823Z,20.55
2023-07-25T06:24:47.670Z,20.54
2023-07-25T06:27:16.191Z,20.55
2023-07-25T06:29:44.708Z,20.56
2023-07-25T06:32:13.061Z,20.57
2023-07-25T06:34:41.888Z,20.58
2023-07-25T06:37:13.043Z,20.59
2023-07-25T06:39:41.179Z,20.59
2023-07-25T06:42:09.309Z,20.62
2023-07-25T06:44:38.101Z,20.64
2023-07-25T06:47:06.686Z,20.66
2023-07-25T06:49:34.748Z,20.67
2023-07-25T06:52:02.942Z,20.69
2023-07-25T06:54:31.255Z,20.70
2023-07-25T06:56:59.662Z,20.70
2023-07-25T06:59:30.974Z,20.73
2023-07-25T07:01:59.249Z,20.77
2023-07-25T07:04:27.443Z,20.78
2023-07-25T07:06:55.690Z,20.80
2023-07-25T07:09:23.800Z,20.82
2023-07-25T07:11:51.944Z,20.86
2023-07-25T07:14:20.061Z,20.91
2023-07-25T07:16:48.309Z,20.94
2023-07-25T07:19:16.647Z,20.97
2023-07-25T07:21:44.736Z,21.00
2023-07-25T07:24:13.223Z,21.02
2023-07-25T07:26:41.413Z,21.05
2023-07-25T07:29:12.183Z,21.08
2023-07-25T07:31:40.461Z,21.08
2023-07-25T07:34:17.560Z,21.07
2023-07-25T07:36:46.363Z,21.06
2023-07-25T07:39:14.849Z,21.04
2023-07-25T07:41:43.039Z,21.04
2023-07-25T07:44:11.110Z,21.06
2023-07-25T07:46:39.283Z,21.08
2023-07-25T07:49:07.465Z,21.12
2023-07-25T07:51:35.570Z,21.16
2023-07-25T07:54:03.723Z,21.21
2023-07-25T07:56:31.992Z,21.24
2023-07-25T07:59:00.128Z,21.26
2023-07-25T08:01:28.988Z,21.30
2023-07-25T08:03:57.326Z,21.32
2023-07-25T08:06:25.627Z,21.35
2023-07-25T08:08:53.740Z,21.40
2023-07-25T08:11:21.851Z,21.45
2023-07-25T08:13:50.066Z,21.48
2023-07-25T08:16:18.185Z,21.51
2023-07-25T08:18:46.305Z,21.53
2023-07-25T08:21:14.481Z,21.54
2023-07-25T08:23:42.600Z,21.58
2023-07-25T08:26:10.914Z,21.62
2023-07-25T08:28:39.092Z,21.64
2023-07-25T08:31:07.763Z,21.66
2023-07-25T08:33:36.095Z,21.70
2023-07-25T08:36:07.318Z,21.74
2023-07-25T08:38:35.617Z,21.76
2023-07-25T08:41:12.168Z,21.78
2023-07-25T08:43:41.701Z,21.82
2023-07-25T08:46:11.377Z,21.85
2023-07-25T08:48:43.090Z,21.89
2023-07-25T08:51:24.034Z,21.93
2023-07-25T08:54:29.317Z,21.95
2023-07-25T08:56:57.666Z,21.97
2023-07-25T08:59:26.856Z,22.01
2023-07-25T09:01:55.950Z,22.04
2023-07-25T09:04:26.765Z,22.09
2023-07-25T09:06:55.201Z,22.11
2023-07-25T09:09:24.836Z,22.12
2023-07-25T09:11:54.457Z,22.14
2023-07-25T09:14:22.588Z,22.15
2023-07-25T09:16:50.794Z,22.14
2023-07-25T09:19:19.097Z,22.14
2023-07-25T09:21:59.111Z,22.15
2023-07-25T09:24:37.981Z,22.16
2023-07-25T09:27:17.833Z,22.16
2023-07-25T09:29:47.964Z,22.16
2023-07-25T09:32:27.288Z,22.15
2023-07-25T09:35:03.546Z,22.15
2023-07-25T09:37:31.815Z,22.16
2023-07-25T09:40:00.070Z,22.13
2023-07-25T09:42:28.388Z,21.93
2023-07-25T09:44:57.455Z,21.71
2023-07-25T09:47:27.820Z,21.56
2023-07-25T09:49:57.507Z,21.45
2023-07-25T09:52:26.814Z,21.36
2023-07-25T09:54:55.120Z,21.29
2023-07-25T09:57:23.429Z,21.24
2023-07-25T09:59:52.549Z,21.19
2023-07-25T10:02:21.077Z,21.15
2023-07-25T10:04:50.479Z,21.14
2023-07-25T10:07:19.201Z,21.12
2023-07-25T10:09:48.775Z,21.12
2023-07-25T10:12:16.927Z,21.10
2023-07-25T10:14:45.770Z,21.09
2023-07-25T10:17:14.352Z,21.08
2023-07-25T10:19:47.873Z,21.05
2023-07-25T10:22:16.240Z,21.03
2023-07-25T10:24:44.936Z,21.02
2023-07-25T10:27:14.027Z,21.03
2023-07-25T10:29:43.477Z,21.20
2023-07-25T10:32:16.356Z,21.42
2023-07-25T10:34:46.324Z,21.61
2023-07-25T10:37:20.756Z,21.75
2023-07-25T10:40:14.219Z,21.90
2023-07-25T10:45:28.526Z,22.12
2023-07-25T10:47:59.751Z,22.16
2023-07-25T10:50:49.116Z,22.03
2023-07-25T10:53:22.827Z,21.86
2023-07-25T10:56:09.292Z,21.73
2023-07-25T10:58:58.085Z,21.64
2023-07-25T11:01:34.199Z,21.56
2023-07-25T11:04:41.441Z,21.51
2023-07-25T11:07:12.378Z,21.49
2023-07-25T11:09:43.252Z,21.48
2023-07-25T11:12:12.761Z,21.47
2023-07-25T11:14:43.517Z,21.48
2023-07-25T11:17:14.996Z,21.47
2023-07-25T11:19:43.168Z,21.47
2023-07-25T11:22:12.960Z,21.46
2023-07-25T11:24:46.048Z,21.46
2023-07-25T11:27:15.822Z,21.43
2023-07-25T11:29:44.212Z,21.39
2023-07-25T11:32:12.438Z,21.32
2023-07-25T11:34:41.235Z,21.23
2023-07-25T11:37:13.157Z,21.13
2023-07-25T11:39:41.308Z,21.03
2023-07-25T11:42:09.858Z,20.94
2023-07-25T11:44:38.621Z,20.87
2023-07-25T11:47:07.068Z,20.80
2023-07-25T11:49:49.285Z,20.76
2023-07-25T11:52:20.916Z,20.70
2023-07-25T11:54:49.408Z,20.67
2023-07-25T11:57:17.610Z,20.66
2023-07-25T11:59:45.875Z,20.66
2023-07-25T12:02:14.087Z,20.64
2023-07-25T12:04:45.044Z,20.61
2023-07-25T12:07:14.846Z,20.60
2023-07-25T12:09:53.365Z,20.60
2023-07-25T12:12:22.373Z,20.58
2023-07-25T12:14:59.090Z,20.56
2023-07-25T12:17:46.117Z,20.57
2023-07-25T12:20:21.342Z,20.58
2023-07-25T12:22:49.670Z,20.63
2023-07-25T12:25:19.335Z,20.81
2023-07-25T12:27:49.955Z,20.99
2023-07-25T12:30:18.143Z,21.13
2023-07-25T12:32:46.328Z,21.21
2023-07-25T12:35:14.592Z,21.26
2023-07-25T12:37:42.878Z,21.29
2023-07-25T12:40:11.534Z,21.29
2023-07-25T12:42:39.789Z,21.30
2023-07-25T12:45:11.029Z,21.32
2023-07-25T12:47:40.053Z,21.35
2023-07-25T12:50:10.028Z,21.37
2023-07-25T12:52:38.445Z,21.39
2023-07-25T12:55:07.346Z,21.40
2023-07-25T12:57:35.769Z,21.39
2023-07-25T13:00:08.502Z,21.41
2023-07-25T13:02:38.280Z,21.43
2023-07-25T13:05:08.171Z,21.45
2023-07-25T13:07:36.709Z,21.45
2023-07-25T13:10:08.163Z,21.44
2023-07-25T13:12:36.420Z,21.44
2023-07-25T13:15:05.932Z,21.43
2023-07-25T13:17:35.199Z,21.44
2023-07-25T13:20:08.437Z,21.43
2023-07-25T13:22:37.418Z,21.45
2023-07-25T13:25:06.333Z,21.48
2023-07-25T13:27:34.546Z,21.51
2023-07-25T13:30:02.769Z,21.53
2023-07-25T13:32:32.021Z,21.56
2023-07-25T13:35:00.425Z,21.59
2023-07-25T13:37:28.659Z,21.61
2023-07-25T13:39:56.769Z,21.65
2023-07-25T13:42:25.571Z,21.70
2023-07-25T13:44:53.751Z,21.75
2023-07-25T13:47:22.184Z,21.77
2023-07-25T13:49:51.094Z,21.62
2023-07-25T13:52:19.168Z,21.47
2023-07-25T13:54:47.360Z,21.37
2023-07-25T13:57:15.525Z,21.28
2023-07-25T13:59:43.660Z,21.19
2023-07-25T14:02:11.858Z,21.15
2023-07-25T14:04:40.912Z,21.12
2023-07-25T14:07:09.476Z,21.11
2023-07-25T14:09:37.629Z,21.12
2023-07-25T14:12:06.737Z,21.13
2023-07-25T14:14:35.991Z,21.15
2023-07-25T14:17:04.737Z,21.17
2023-07-25T14:19:32.896Z,21.21
2023-07-25T14:22:01.668Z,21.28
2023-07-25T14:24:31.136Z,21.33
2023-07-25T14:26:59.326Z,21.35
2023-07-25T14:29:27.466Z,21.37
2023-07-25T14:31:55.833Z,21.41
2023-07-25T14:34:25.187Z,21.46
2023-07-25T14:36:53.352Z,21.47
2023-07-25T14:39:21.405Z,21.48
2023-07-25T14:41:49.497Z,21.48
2023-07-25T14:44:17.594Z,21.49
2023-07-25T14:46:45.801Z,21.49
2023-07-25T14:49:13.958Z,21.46
2023-07-25T14:51:42.116Z,21.43
2023-07-25T14:54:10.229Z,21.42
2023-07-25T14:56:38.620Z,21.41
2023-07-25T14:59:07.158Z,21.42
2023-07-25T15:01:35.341Z,21.39
2023-07-25T15:04:03.599Z,21.33
2023-07-25T15:06:32.166Z,21.30
2023-07-25T15:09:01.584Z,21.26
2023-07-25T15:11:30.076Z,21.19
2023-07-25T15:13:58.219Z,21.14
2023-07-25T15:16:26.381Z,21.12
2023-07-25T15:18:54.819Z,21.10
2023-07-25T15:21:22.949Z,21.05
2023-07-25T15:23:51.072Z,21.02
2023-07-25T15:26:19.153Z,20.99
2023-07-25T15:28:47.225Z,20.98
2023-07-25T15:31:15.541Z,20.97
2023-07-25T15:33:43.680Z,20.96
2023-07-25T15:36:11.828Z,20.97
2023-07-25T15:38:39.941Z,20.99
2023-07-25T15:41:08.043Z,21.00
2023-07-25T15:43:36.117Z,21.02
2023-07-25T15:46:04.269Z,21.03
2023-07-25T15:48:32.594Z,21.04
2023-07-25T15:51:00.808Z,21.07
2023-07-25T15:53:28.990Z,21.09
2023-07-25T15:55:57.342Z,21.09
2023-07-25T15:58:25.506Z,21.07
2023-07-25T16:00:53.698Z,21.04
2023-07-25T16:03:22.034Z,20.99
2023-07-25T16:05:50.450Z,20.96
2023-07-25T16:08:18.863Z,20.95
2023-07-25T16:10:47.079Z,20.90
2023-07-25T16:13:15.788Z,20.83
2023-07-25T16:15:47.460Z,20.79
2023-07-25T16:18:15.757Z,20.79
2023-07-25T16:20:44.337Z,20.82
2023-07-25T16:23:12.528Z,20.86
2023-07-25T16:25:40.633Z,20.92
2023-07-25T16:28:08.858Z,21.03
2023-07-25T16:30:37.710Z,21.18
2023-07-25T16:33:05.906Z,21.35
2023-07-25T16:35:34.018Z,21.51
2023-07-25T16:38:03.382Z,21.68
2023-07-25T16:40:31.837Z,21.85
2023-07-25T16:43:00.062Z,21.95
2023-07-25T16:45:28.167Z,22.04
2023-07-25T16:47:56.936Z,22.09
2023-07-25T16:50:25.400Z,22.12
2023-07-25T16:52:53.669Z,22.16
2023-07-25T16:55:21.929Z,22.24
2023-07-25T16:57:50.100Z,22.27
2023-07-25T17:00:18.588Z,22.29
2023-07-25T17:02:46.730Z,22.35
2023-07-25T17:05:14.945Z,22.42
2023-07-25T17:07:43.336Z,22.49
2023-07-25T17:10:11.504Z,22.58
2023-07-25T17:12:39.580Z,22.62
2023-07-25T17:15:08.269Z,22.65
2023-07-25T17:17:36.423Z,22.66
2023-07-25T17:20:05.579Z,22.70
2023-07-25T17:22:33.825Z,22.71
2023-07-25T17:25:01.980Z,22.72
2023-07-25T17:27:30.204Z,22.73
2023-07-25T17:29:58.420Z,22.74
2023-07-25T17:32:27.261Z,22.74
2023-07-25T17:34:55.560Z,22.75
2023-07-25T17:37:23.697Z,22.74
2023-07-25T17:39:51.854Z,22.72
2023-07-25T17:42:20.056Z,22.68
2023-07-25T17:44:48.205Z,22.63
2023-07-25T17:47:16.388Z,22.59
2023-07-25T17:49:44.547Z,22.55
2023-07-25T17:52:12.746Z,22.52
2023-07-25T17:54:40.943Z,22.47
2023-07-25T17:57:09.071Z,22.44
2023-07-25T17:59:37.245Z,22.38
2023-07-25T18:02:05.650Z,22.33
2023-07-25T18:04:34.361Z,22.30
2023-07-25T18:07:02.465Z,22.26
2023-07-25T18:09:30.688Z,22.23
2023-07-25T18:11:58.882Z,22.21
2023-07-25T18:14:27.115Z,22.19
2023-07-25T18:16:55.244Z,22.17
2023-07-25T18:19:23.382Z,22.14
2023-07-25T18:21:52.095Z,22.12
2023-07-25T18:24:20.389Z,22.09
2023-07-25T18:26:49.696Z,22.07
2023-07-25T18:29:17.914Z,22.04
2023-07-25T18:31:46.093Z,22.00
2023-07-25T18:34:14.697Z,21.92
2023-07-25T18:36:42.831Z,21.84
2023-07-25T18:39:14.962Z,21.76
2023-07-25T18:41:43.165Z,21.65
2023-07-25T18:44:11.278Z,21.53
2023-07-25T18:46:39.436Z,21.42
2023-07-25T18:49:07.713Z,21.33
2023-07-25T18:51:35.900Z,21.25
2023-07-25T18:54:04.185Z,21.18
2023-07-25T18:56:33.386Z,21.09
2023-07-25T18:59:02.715Z,21.01
2023-07-25T19:01:34.196Z,20.93
2023-07-25T19:04:02.629Z,20.84
2023-07-25T19:06:31.268Z,20.76
2023-07-25T19:08:59.907Z,20.66
2023-07-25T19:11:28.172Z,20.56
2023-07-25T19:13:56.484Z,20.46
2023-07-25T19:16:24.725Z,20.36
2023-07-25T19:18:52.926Z,20.26
2023-07-25T19:21:21.006Z,20.17
2023-07-25T19:23:49.144Z,20.08
2023-07-25T19:26:17.336Z,20.00
2023-07-25T19:28:45.612Z,19.93
2023-07-25T19:31:13.757Z,19.86
2023-07-25T19:33:41.973Z,19.78
2023-07-25T19:36:10.136Z,19.67
2023-07-25T19:38:38.347Z,19.58
2023-07-25T19:41:15.400Z,19.49
2023-07-25T19:43:43.765Z,19.40
2023-07-25T19:46:11.902Z,19.33
2023-07-25T19:48:40.136Z,19.27
2023-07-25T19:51:10.525Z,19.19
2023-07-25T19:53:39.354Z,19.12
2023-07-25T19:56:12.445Z,19.06
2023-07-25T19:58:44.818Z,18.98
2023-07-25T20:01:14.226Z,18.91
2023-07-25T20:03:42.692Z,18.83
2023-07-25T20:06:11.041Z,18.76
2023-07-25T20:08:39.252Z,18.71
2023-07-25T20:11:08.641Z,18.66
2023-07-25T20:13:36.984Z,18.61
2023-07-25T20:16:05.459Z,18.56
2023-07-25T20:18:33.844Z,18.51
2023-07-25T20:21:09.885Z,18.47
2023-07-25T20:23:39.527Z,18.43
2023-07-25T20:26:07.909Z,18.40
2023-07-25T20:28:36.042Z,18.37
2023-07-25T20:37:36.008Z,18.21
2023-07-25T20:40:06.460Z,18.18
2023-07-25T20:42:36.043Z,18.15
2023-07-25T20:45:04.419Z,18.10
2023-07-25T20:47:34.576Z,18.06
2023-07-25T20:50:05.356Z,18.03
2023-07-25T20:52:33.492Z,18.02
2023-07-25T20:55:01.936Z,18.16
2023-07-25T20:57:31.213Z,18.32
2023-07-25T20:59:59.355Z,18.45
2023-07-25T21:02:27.764Z,18.55
2023-07-25T21:04:55.915Z,18.62
2023-07-25T21:07:24.030Z,18.69
2023-07-25T21:09:52.233Z,18.75
2023-07-25T21:12:20.403Z,18.81
2023-07-25T21:14:48.513Z,18.86
2023-07-25T21:17:16.726Z,18.92
2023-07-25T21:19:44.834Z,18.97
2023-07-25T21:22:13.087Z,19.03
2023-07-25T21:24:41.804Z,19.05
2023-07-25T21:27:09.905Z,19.07
2023-07-25T21:29:38.040Z,19.08
2023-07-25T21:32:06.369Z,19.11
2023-07-25T21:34:34.535Z,19.10
2023-07-25T21:37:02.793Z,18.92
2023-07-25T21:39:30.927Z,18.72
2023-07-25T21:41:59.099Z,18.56
2023-07-25T21:44:27.294Z,18.42
2023-07-25T21:46:55.512Z,18.31
2023-07-25T21:49:24.147Z,18.22
2023-07-25T21:51:52.381Z,18.12
2023-07-25T21:54:20.575Z,18.04
2023-07-25T21:56:51.017Z,17.97
2023-07-25T21:59:19.552Z,17.89
2023-07-25T22:01:47.755Z,17.86
2023-07-25T22:04:15.947Z,17.98
2023-07-25T22:06:44.052Z,18.10
2023-07-25T22:09:12.225Z,18.20
2023-07-25T22:11:40.425Z,18.29
2023-07-25T22:14:08.726Z,18.35
2023-07-25T22:16:37.125Z,18.42
2023-07-25T22:19:05.490Z,18.48
2023-07-25T22:21:33.589Z,18.53
2023-07-25T22:24:01.797Z,18.56
2023-07-25T22:26:30.288Z,18.60
2023-07-25T22:28:58.685Z,18.63
2023-07-25T22:31:26.925Z,18.63
2023-07-25T22:33:55.094Z,18.62
2023-07-25T22:36:23.156Z,18.62
2023-07-25T22:38:51.400Z,18.62
2023-07-25T22:41:19.832Z,18.60
2023-07-25T22:43:47.927Z,18.58
2023-07-25T22:46:16.082Z,18.57
2023-07-25T22:48:44.317Z,18.54
2023-07-25T22:51:12.478Z,18.52
2023-07-25T22:53:40.604Z,18.52
2023-07-25T22:56:08.694Z,18.51
2023-07-25T22:58:36.842Z,18.50
2023-07-25T23:01:05.076Z,18.48
2023-07-25T23:03:36.256Z,18.45
2023-07-25T23:06:04.483Z,18.43
2023-07-25T23:08:32.544Z,18.40
2023-07-25T23:11:00.677Z,18.37
2023-07-25T23:13:28.950Z,18.34
2023-07-25T23:15:57.150Z,18.32
2023-07-25T23:18:25.288Z,18.32
2023-07-25T23:20:53.458Z,18.31
2023-07-25T23:23:21.594Z,18.30
2023-07-25T23:25:49.710Z,18.28
2023-07-25T23:28:17.915Z,18.26
2023-07-25T23:30:46.101Z,18.23
2023-07-25T23:33:14.318Z,18.21
2023-07-25T23:35:42.490Z,18.19
2023-07-25T23:38:10.669Z,18.19
2023-07-25T23:40:39.023Z,18.21
2023-07-25T23:43:07.215Z,18.23
2023-07-25T23:45:35.296Z,18.25
2023-07-25T23:48:03.684Z,18.26
2023-07-25T23:50:31.972Z,18.27
2023-07-25T23:53:00.096Z,18.25
2023-07-25T23:55:28.382Z,18.24
2023-07-25T23:57:56.544Z,18.25
